createdAt,value
2023-04-21T00:01:30.461Z,47.03
2023-04-21T00:04:02.618Z,50.80
2023-04-21T00:06:34.595Z,47.70
2023-04-21T00:09:06.570Z,46.40
2023-04-21T00:11:38.105Z,49.95
2023-04-21T00:14:09.232Z,50.30
2023-04-21T00:16:41.102Z,52.90
2023-04-21T00:19:13.600Z,44.42
2023-04-21T00:21:44.875Z,43.20
2023-04-21T00:24:15.881Z,48.85
2023-04-21T00:26:46.957Z,48.83
2023-04-21T00:29:18.316Z,48.45
2023-04-21T00:31:50.051Z,47.30
2023-04-21T00:34:21.041Z,46.00
2023-04-21T00:36:52.369Z,44.18
2023-04-21T00:39:24.137Z,47.75
2023-04-21T00:41:55.299Z,50.73
2023-04-21T00:44:26.681Z,49.45
2023-04-21T00:46:57.757Z,50.52
2023-04-21T00:49:28.966Z,47.98
2023-04-21T00:52:00.557Z,48.78
2023-04-21T00:54:31.964Z,43.87
2023-04-21T00:57:03.276Z,47.15
2023-04-21T00:59:34.713Z,52.10
2023-04-21T01:02:07.530Z,62.00
2023-04-21T01:04:40.373Z,63.92
2023-04-21T01:07:11.727Z,47.33
2023-04-21T01:09:43.020Z,46.50
2023-04-21T01:12:15.036Z,43.05
2023-04-21T01:14:46.277Z,46.53
2023-04-21T01:17:18.934Z,49.95
2023-04-21T01:19:50.961Z,45.90
2023-04-21T01:22:22.344Z,39.95
2023-04-21T01:24:53.334Z,45.03
2023-04-21T01:27:24.342Z,47.30
2023-04-21T01:29:55.877Z,50.03
2023-04-21T01:32:30.423Z,45.50
2023-04-21T01:35:02.141Z,42.62
2023-04-21T01:37:35.040Z,41.23
2023-04-21T01:40:08.650Z,43.02
2023-04-21T01:42:42.032Z,50.05
2023-04-21T01:45:13.987Z,40.03
2023-04-21T01:47:45.785Z,43.58
2023-04-21T01:50:17.260Z,47.33
2023-04-21T01:52:48.304Z,59.83
2023-04-21T01:55:19.433Z,41.30
2023-04-21T01:57:50.708Z,36.25
2023-04-21T02:00:22.256Z,40.88
2023-04-21T02:02:53.332Z,58.05
2023-04-21T02:05:24.831Z,44.20
2023-04-21T02:07:55.999Z,43.87
2023-04-21T02:10:27.024Z,41.45
2023-04-21T02:12:58.020Z,39.42
2023-04-21T02:15:29.486Z,37.73
2023-04-21T02:18:00.820Z,40.52
2023-04-21T02:20:31.897Z,42.88
2023-04-21T02:23:02.814Z,37.70
2023-04-21T02:25:34.245Z,91.08
2023-04-21T02:28:05.705Z,42.10
2023-04-21T02:30:37.266Z,59.93
2023-04-21T02:33:08.266Z,49.38
2023-04-21T02:35:39.554Z,43.50
2023-04-21T02:38:11.551Z,39.65
2023-04-21T02:40:43.696Z,44.48
2023-04-21T02:43:16.131Z,40.90
2023-04-21T02:45:47.290Z,41.90
2023-04-21T02:48:19.919Z,42.08
2023-04-21T02:50:51.775Z,45.50
2023-04-21T02:53:25.633Z,35.78
2023-04-21T02:55:56.806Z,38.10
2023-04-21T02:58:27.808Z,39.05
2023-04-21T03:01:00.189Z,34.78
2023-04-21T03:03:31.692Z,37.25
2023-04-21T03:06:04.282Z,35.13
2023-04-21T03:08:35.367Z,36.15
2023-04-21T03:11:26.705Z,36.73
2023-04-21T03:13:57.760Z,38.60
2023-04-21T03:16:29.373Z,36.08
2023-04-21T03:19:00.397Z,37.23
2023-04-21T03:21:32.656Z,36.15
2023-04-21T03:24:03.840Z,54.35
2023-04-21T03:26:34.997Z,44.70
2023-04-21T03:29:05.983Z,42.17
2023-04-21T03:31:36.971Z,37.45
2023-04-21T03:34:08.060Z,47.85
2023-04-21T03:36:39.145Z,46.63
2023-04-21T03:39:19.714Z,42.23
2023-04-21T03:41:42.898Z,52.30
2023-04-21T03:44:13.855Z,48.55
2023-04-21T03:46:44.856Z,45.38
2023-04-21T03:49:15.816Z,43.78
2023-04-21T03:51:46.806Z,48.48
2023-04-21T03:54:18.017Z,37.58
2023-04-21T03:56:48.996Z,41.05
2023-04-21T03:59:20.220Z,40.78
2023-04-21T04:01:51.750Z,86.00
2023-04-21T04:04:22.914Z,46.10
2023-04-21T04:06:54.307Z,40.30
2023-04-21T04:09:25.283Z,39.53
2023-04-21T04:11:56.240Z,39.83
2023-04-21T04:14:27.224Z,41.00
2023-04-21T04:16:58.616Z,49.80
2023-04-21T04:19:33.957Z,45.23
2023-04-21T04:22:05.361Z,42.57
2023-04-21T04:24:37.531Z,36.53
2023-04-21T04:27:08.918Z,43.02
2023-04-21T04:29:39.892Z,39.25
2023-04-21T04:32:12.228Z,39.75
2023-04-21T04:34:43.362Z,40.88
2023-04-21T04:37:14.348Z,40.00
2023-04-21T04:39:45.448Z,38.42
2023-04-21T04:42:16.702Z,39.85
2023-04-21T04:44:48.205Z,37.73
2023-04-21T04:47:19.196Z,37.17
2023-04-21T04:49:50.246Z,37.50
2023-04-21T04:52:21.234Z,42.38
2023-04-21T04:54:52.217Z,37.90
2023-04-21T04:57:23.847Z,37.53
2023-04-21T04:59:58.799Z,40.48
2023-04-21T05:02:29.867Z,38.38
2023-04-21T05:05:01.602Z,37.17
2023-04-21T05:07:32.636Z,49.20
2023-04-21T05:10:06.587Z,38.73
2023-04-21T05:12:37.545Z,38.42
2023-04-21T05:15:10.271Z,42.03
2023-04-21T05:17:59.592Z,40.25
2023-04-21T05:20:31.349Z,39.23
2023-04-21T05:23:02.533Z,40.17
2023-04-21T05:25:33.935Z,44.55
2023-04-21T05:28:05.026Z,36.38
2023-04-21T05:30:36.491Z,40.98
2023-04-21T05:33:07.510Z,41.08
2023-04-21T05:35:39.006Z,47.05
2023-04-21T05:38:10.003Z,40.80
2023-04-21T05:40:40.964Z,40.00
2023-04-21T05:43:12.635Z,39.45
2023-04-21T05:45:43.713Z,38.78
2023-04-21T05:48:14.986Z,38.33
2023-04-21T05:50:45.992Z,38.78
2023-04-21T05:53:17.359Z,40.45
2023-04-21T05:55:48.889Z,38.50
2023-04-21T05:58:20.493Z,40.70
2023-04-21T06:00:52.376Z,42.67
2023-04-21T06:03:23.464Z,40.50
2023-04-21T06:06:02.214Z,39.27
2023-04-21T06:08:33.470Z,41.98
2023-04-21T06:11:04.462Z,39.35
2023-04-21T06:13:37.450Z,38.45
2023-04-21T06:16:08.622Z,43.28
2023-04-21T06:18:40.536Z,44.10
2023-04-21T06:21:11.639Z,40.20
2023-04-21T06:23:43.444Z,47.05
2023-04-21T06:26:15.353Z,42.93
2023-04-21T06:28:46.775Z,40.25
2023-04-21T06:31:17.823Z,41.83
2023-04-21T06:33:49.402Z,40.25
2023-04-21T06:36:20.565Z,39.27
2023-04-21T06:38:51.553Z,41.00
2023-04-21T06:41:24.741Z,40.78
2023-04-21T06:43:55.050Z,59.60
2023-04-21T06:46:26.093Z,38.88
2023-04-21T06:48:57.239Z,37.03
2023-04-21T06:51:29.765Z,41.53
2023-04-21T06:54:00.868Z,40.00
2023-04-21T06:56:31.877Z,39.45
2023-04-21T06:59:02.846Z,38.67
2023-04-21T07:01:34.525Z,39.78
2023-04-21T07:04:07.389Z,37.38
2023-04-21T07:06:38.785Z,39.05
2023-04-21T07:09:10.337Z,39.33
2023-04-21T07:11:41.629Z,39.05
2023-04-21T07:14:15.049Z,40.25
2023-04-21T07:16:45.404Z,40.38
2023-04-21T07:19:16.683Z,38.63
2023-04-21T07:27:30.195Z,41.90
2023-04-21T07:30:01.760Z,42.00
2023-04-21T07:32:33.408Z,39.70
2023-04-21T07:35:04.401Z,38.13
2023-04-21T07:37:37.012Z,40.70
2023-04-21T07:40:09.954Z,47.05
2023-04-21T07:42:41.085Z,39.65
2023-04-21T07:45:12.752Z,39.03
2023-04-21T07:47:43.929Z,39.55
2023-04-21T07:50:15.065Z,40.65
2023-04-21T07:52:46.131Z,39.85
2023-04-21T07:55:17.493Z,39.75
2023-04-21T07:57:48.953Z,40.05
2023-04-21T08:00:20.417Z,38.70
2023-04-21T08:02:52.250Z,43.52
2023-04-21T08:05:23.774Z,40.73
2023-04-21T08:07:56.211Z,55.45
2023-04-21T08:10:27.816Z,39.15
2023-04-21T08:12:59.078Z,49.05
2023-04-21T08:15:30.175Z,40.52
2023-04-21T08:18:01.606Z,39.40
2023-04-21T08:20:33.221Z,43.35
2023-04-21T08:23:04.486Z,41.45
2023-04-21T08:25:35.536Z,43.48
2023-04-21T08:28:06.979Z,40.17
2023-04-21T08:30:38.152Z,47.58
2023-04-21T08:33:11.312Z,39.83
2023-04-21T08:35:59.179Z,40.12
2023-04-21T08:38:17.446Z,40.92
2023-04-21T08:40:49.027Z,41.33
2023-04-21T08:43:20.106Z,41.80
2023-04-21T08:45:51.539Z,39.27
2023-04-21T08:48:24.812Z,40.20
2023-04-21T08:50:55.810Z,40.52
2023-04-21T08:53:26.982Z,38.73
2023-04-21T08:56:10.811Z,41.15
2023-04-21T09:01:03.958Z,39.67
2023-04-21T09:03:35.399Z,39.92
2023-04-21T09:06:09.391Z,39.58
2023-04-21T09:08:42.848Z,39.30
2023-04-21T09:11:16.253Z,39.00
2023-04-21T09:13:47.295Z,39.40
2023-04-21T09:16:23.438Z,39.20
2023-04-21T09:18:54.983Z,40.83
2023-04-21T09:21:30.655Z,46.58
2023-04-21T09:24:02.308Z,38.85
2023-04-21T09:26:35.191Z,38.67
2023-04-21T09:29:09.008Z,39.50
2023-04-21T09:31:40.169Z,41.00
2023-04-21T09:34:27.345Z,42.38
2023-04-21T09:37:10.793Z,40.38
2023-04-21T09:39:49.586Z,44.40
2023-04-21T09:42:17.559Z,42.25
2023-04-21T09:44:53.837Z,49.90
2023-04-21T09:47:22.276Z,42.85
2023-04-21T09:49:55.354Z,41.15
2023-04-21T09:52:30.825Z,41.90
2023-04-21T09:55:06.368Z,43.78
2023-04-21T09:57:39.913Z,44.65
2023-04-21T10:00:15.339Z,41.73
2023-04-21T10:02:48.765Z,50.92
2023-04-21T10:05:20.053Z,51.60
2023-04-21T10:07:52.227Z,48.42
2023-04-21T10:10:32.254Z,57.85
2023-04-21T10:13:03.525Z,45.98
2023-04-21T10:15:37.061Z,42.73
2023-04-21T10:18:29.855Z,50.23
2023-04-21T10:21:08.699Z,47.45
2023-04-21T10:23:47.605Z,42.40
2023-04-21T10:26:24.061Z,43.87
2023-04-21T10:29:02.993Z,43.42
2023-04-21T10:31:40.209Z,45.98
2023-04-21T10:34:13.630Z,47.03
2023-04-21T10:36:52.977Z,45.00
2023-04-21T10:39:37.883Z,51.18
2023-04-21T10:42:24.893Z,52.35
2023-04-21T10:45:03.888Z,47.80
2023-04-21T10:47:54.914Z,55.20
2023-04-21T10:50:28.246Z,55.15
2023-04-21T10:53:01.121Z,59.67
2023-04-21T10:55:32.947Z,55.08
2023-04-21T10:58:06.136Z,55.85
2023-04-21T11:00:39.014Z,53.87
2023-04-21T11:03:11.770Z,56.25
2023-04-21T11:05:44.157Z,48.87
2023-04-21T11:08:16.526Z,40.92
2023-04-21T11:10:50.145Z,41.73
2023-04-21T11:13:28.568Z,42.25
2023-04-21T11:16:11.785Z,44.30
2023-04-21T11:18:46.439Z,41.30
2023-04-21T11:21:22.704Z,44.67
2023-04-21T11:24:04.509Z,54.33
2023-04-21T11:26:38.968Z,62.23
2023-04-21T11:29:11.559Z,48.45
2023-04-21T11:31:44.119Z,52.95
2023-04-21T11:34:17.408Z,49.42
2023-04-21T11:36:49.363Z,47.75
2023-04-21T11:39:22.018Z,55.65
2023-04-21T11:41:54.239Z,49.30
2023-04-21T11:44:45.573Z,55.60
2023-04-21T11:47:21.830Z,49.50
2023-04-21T11:50:01.030Z,48.58
2023-04-21T11:52:37.837Z,47.25
2023-04-21T11:55:18.698Z,47.40
2023-04-21T11:57:49.826Z,51.98
2023-04-21T12:00:23.007Z,49.45
2023-04-21T12:03:00.888Z,49.25
2023-04-21T12:05:39.887Z,49.42
2023-04-21T12:08:30.959Z,54.90
2023-04-21T12:11:13.110Z,47.33
2023-04-21T12:13:48.241Z,46.30
2023-04-21T12:16:20.958Z,49.88
2023-04-21T12:19:04.191Z,45.70
2023-04-21T12:21:37.976Z,45.95
2023-04-21T12:24:09.195Z,46.95
2023-04-21T12:26:40.161Z,46.18
2023-04-21T12:29:11.186Z,44.83
2023-04-21T12:31:42.196Z,43.85
2023-04-21T12:34:13.280Z,46.80
2023-04-21T12:36:44.309Z,48.65
2023-04-21T12:39:15.407Z,43.85
2023-04-21T12:41:46.675Z,47.30
2023-04-21T12:44:17.668Z,43.35
2023-04-21T12:46:50.042Z,46.18
2023-04-21T12:49:21.307Z,43.38
2023-04-21T12:51:52.632Z,43.38
2023-04-21T12:54:23.584Z,43.20
2023-04-21T12:56:54.668Z,42.83
2023-04-21T12:59:25.666Z,42.30
2023-04-21T13:01:57.230Z,40.50
2023-04-21T13:04:28.534Z,40.20
2023-04-21T13:07:00.426Z,46.13
2023-04-21T13:09:32.223Z,43.90
2023-04-21T13:12:03.779Z,41.15
2023-04-21T13:14:34.872Z,43.33
2023-04-21T13:17:06.291Z,39.90
2023-04-21T13:19:37.285Z,41.23
2023-04-21T13:22:08.351Z,44.45
2023-04-21T13:24:39.313Z,40.73
2023-04-21T13:27:10.457Z,44.20
2023-04-21T13:29:41.491Z,40.38
2023-04-21T13:32:12.623Z,40.88
2023-04-21T13:34:43.619Z,39.65
2023-04-21T13:37:15.999Z,41.20
2023-04-21T13:39:47.176Z,38.80
2023-04-21T13:42:18.278Z,42.45
2023-04-21T13:44:49.481Z,42.83
2023-04-21T13:47:20.463Z,42.58
2023-04-21T13:49:52.726Z,39.45
2023-04-21T13:52:23.701Z,41.08
2023-04-21T13:54:56.180Z,39.40
2023-04-21T13:57:28.048Z,41.25
2023-04-21T13:59:59.401Z,42.90
2023-04-21T14:02:30.631Z,39.00
2023-04-21T14:05:02.392Z,39.85
2023-04-21T14:07:33.884Z,40.60
2023-04-21T14:10:05.522Z,38.02
2023-04-21T14:12:36.765Z,41.30
2023-04-21T14:15:09.792Z,40.67
2023-04-21T14:17:41.031Z,43.48
2023-04-21T14:20:12.708Z,39.05
2023-04-21T14:22:43.771Z,41.40
2023-04-21T14:25:14.837Z,39.42
2023-04-21T14:27:46.145Z,38.85
2023-04-21T14:30:17.687Z,39.95
2023-04-21T14:32:48.747Z,38.30
2023-04-21T14:35:20.051Z,42.55
2023-04-21T14:37:54.685Z,38.38
2023-04-21T14:40:26.101Z,39.15
2023-04-21T14:42:58.811Z,40.20
2023-04-21T14:45:29.984Z,42.65
2023-04-21T14:48:01.542Z,39.55
2023-04-21T14:50:32.692Z,38.05
2023-04-21T14:53:08.220Z,38.85
2023-04-21T14:55:38.664Z,41.28
2023-04-21T14:58:11.204Z,39.33
2023-04-21T15:00:45.290Z,37.23
2023-04-21T15:03:27.739Z,39.23
2023-04-21T15:05:59.280Z,48.68
2023-04-21T15:08:30.286Z,40.50
2023-04-21T15:11:01.370Z,38.08
2023-04-21T15:13:32.829Z,38.42
2023-04-21T15:16:06.018Z,38.73
2023-04-21T15:18:47.808Z,40.03
2023-04-21T15:21:18.057Z,37.28
2023-04-21T15:23:50.515Z,41.73
2023-04-21T15:26:22.706Z,37.25
2023-04-21T15:28:57.796Z,42.30
2023-04-21T15:31:31.053Z,41.40
2023-04-21T15:34:02.158Z,39.73
2023-04-21T15:36:33.322Z,43.35
2023-04-21T15:39:05.040Z,41.40
2023-04-21T15:41:39.781Z,38.17
2023-04-21T15:44:16.260Z,38.92
2023-04-21T15:47:10.011Z,39.95
2023-04-21T15:49:41.068Z,40.63
2023-04-21T15:52:12.682Z,39.48
2023-04-21T15:54:43.762Z,38.35
2023-04-21T15:57:14.771Z,39.25
2023-04-21T15:59:47.234Z,38.80
2023-04-21T16:02:25.465Z,41.35
2023-04-21T16:04:59.437Z,39.42
2023-04-21T16:07:30.482Z,36.98
2023-04-21T16:10:01.658Z,38.50
2023-04-21T16:12:34.584Z,37.70
2023-04-21T16:15:22.523Z,39.23
2023-04-21T16:17:41.417Z,41.65
2023-04-21T16:20:13.452Z,39.40
2023-04-21T16:22:44.482Z,42.70
2023-04-21T16:25:20.919Z,46.08
2023-04-21T16:27:50.690Z,41.80
2023-04-21T16:30:21.785Z,39.58
2023-04-21T16:33:00.971Z,43.85
2023-04-21T16:35:32.091Z,42.17
2023-04-21T16:38:04.603Z,49.03
2023-04-21T16:40:36.727Z,46.95
2023-04-21T16:43:07.788Z,42.93
2023-04-21T16:45:42.450Z,43.48
2023-04-21T16:48:13.903Z,41.48
2023-04-21T16:50:46.425Z,40.88
2023-04-21T16:53:17.687Z,47.20
2023-04-21T16:55:48.863Z,39.95
2023-04-21T16:58:19.941Z,42.75
2023-04-21T17:00:51.016Z,43.90
2023-04-21T17:03:22.238Z,42.38
2023-04-21T17:05:53.488Z,45.35
2023-04-21T17:08:25.892Z,44.35
2023-04-21T17:10:56.866Z,40.08
2023-04-21T17:13:31.510Z,39.10
2023-04-21T17:16:03.502Z,41.48
2023-04-21T17:18:34.491Z,40.08
2023-04-21T17:21:07.185Z,45.90
2023-04-21T17:23:38.213Z,44.30
2023-04-21T17:26:12.932Z,46.63
2023-04-21T17:28:44.090Z,36.77
2023-04-21T17:31:16.364Z,38.30
2023-04-21T17:33:52.786Z,52.13
2023-04-21T17:36:26.318Z,45.40
2023-04-21T17:38:58.511Z,46.23
2023-04-21T17:41:29.706Z,41.08
2023-04-21T17:44:01.406Z,43.60
2023-04-21T17:46:32.424Z,39.98
2023-04-21T17:52:27.231Z,38.70
2023-04-21T17:55:01.288Z,42.08
2023-04-21T17:57:32.266Z,44.55
2023-04-21T18:00:03.272Z,40.95
2023-04-21T18:02:34.292Z,44.23
2023-04-21T18:13:46.810Z,39.85
2023-04-21T18:16:17.070Z,47.62
2023-04-21T18:18:48.745Z,48.15
2023-04-21T18:21:19.859Z,45.08
2023-04-21T18:23:50.843Z,38.00
2023-04-21T18:26:21.911Z,36.33
2023-04-21T18:28:52.900Z,38.42
2023-04-21T18:31:25.265Z,39.48
2023-04-21T18:33:57.682Z,37.10
2023-04-21T18:36:32.405Z,36.10
2023-04-21T18:39:01.972Z,36.42
2023-04-21T18:41:32.944Z,38.33
2023-04-21T18:44:03.910Z,39.58
2023-04-21T18:46:35.497Z,37.40
2023-04-21T18:49:06.978Z,37.05
2023-04-21T18:51:38.264Z,37.80
2023-04-21T18:54:09.290Z,37.70
2023-04-21T18:56:40.250Z,36.95
2023-04-21T18:59:11.249Z,40.75
2023-04-21T19:01:45.398Z,43.05
2023-04-21T19:04:17.822Z,41.10
2023-04-21T19:06:49.382Z,41.25
2023-04-21T19:09:20.403Z,35.40
2023-04-21T19:11:51.531Z,34.83
2023-04-21T19:14:22.509Z,35.92
2023-04-21T19:16:54.242Z,34.43
2023-04-21T19:19:27.017Z,36.30
2023-04-21T19:21:58.019Z,35.23
2023-04-21T19:24:29.025Z,32.75
2023-04-21T19:27:03.028Z,37.75
2023-04-21T19:29:34.387Z,35.03
2023-04-21T19:32:05.417Z,35.00
2023-04-21T19:34:36.723Z,38.28
2023-04-21T19:37:07.955Z,30.27
2023-04-21T19:39:38.942Z,32.60
2023-04-21T19:42:10.145Z,32.35
2023-04-21T19:44:44.116Z,28.55
2023-04-21T19:47:14.454Z,31.25
2023-04-21T19:49:47.376Z,30.10
2023-04-21T19:52:20.801Z,27.15
2023-04-21T19:54:51.874Z,29.42
2023-04-21T19:57:23.089Z,26.05
2023-04-21T19:59:54.061Z,29.72
2023-04-21T20:02:25.118Z,27.73
2023-04-21T20:04:56.260Z,26.80
2023-04-21T20:07:27.417Z,27.52
2023-04-21T20:09:58.411Z,29.55
2023-04-21T20:12:29.366Z,26.62
2023-04-21T20:15:00.378Z,27.00
2023-04-21T20:17:33.457Z,29.32
2023-04-21T20:20:05.906Z,27.87
2023-04-21T20:22:39.888Z,36.38
2023-04-21T20:25:11.789Z,25.50
2023-04-21T20:27:48.797Z,27.65
2023-04-21T20:32:50.970Z,27.55
2023-04-21T20:35:24.095Z,26.05
2023-04-21T20:37:54.570Z,28.38
2023-04-21T20:40:25.696Z,26.80
2023-04-21T20:43:02.092Z,29.95
2023-04-21T20:45:32.772Z,26.17
2023-04-21T20:48:03.802Z,25.30
2023-04-21T20:50:35.358Z,26.73
2023-04-21T20:53:07.692Z,25.52
2023-04-21T20:55:38.766Z,29.92
2023-04-21T20:58:09.820Z,22.15
2023-04-21T21:00:43.173Z,22.93
2023-04-21T21:03:16.406Z,23.60
2023-04-21T21:05:47.566Z,20.90
2023-04-21T21:08:20.466Z,22.10
2023-04-21T21:10:51.520Z,23.00
2023-04-21T21:13:23.897Z,20.08
2023-04-21T21:15:56.628Z,23.32
2023-04-21T21:18:27.797Z,22.75
2023-04-21T21:20:58.854Z,25.92
2023-04-21T21:23:30.135Z,27.07
2023-04-21T21:26:02.482Z,23.65
2023-04-21T21:28:33.523Z,20.40
2023-04-21T21:31:04.689Z,22.65
2023-04-21T21:33:35.685Z,22.35
2023-04-21T21:36:07.204Z,23.92
2023-04-21T21:38:39.523Z,26.55
2023-04-21T21:41:11.892Z,19.90
2023-04-21T21:43:42.862Z,28.00
2023-04-21T21:46:13.913Z,23.38
2023-04-21T21:48:44.926Z,26.00
2023-04-21T21:51:17.292Z,25.15
2023-04-21T21:53:51.403Z,29.82
2023-04-21T21:56:25.184Z,25.68
2023-04-21T21:59:00.560Z,25.12
2023-04-21T22:01:31.770Z,26.95
2023-04-21T22:04:02.839Z,29.65
2023-04-21T22:06:35.471Z,30.48
2023-04-21T22:09:10.019Z,25.45
2023-04-21T22:11:43.825Z,24.95
2023-04-21T22:14:24.345Z,28.20
2023-04-21T22:16:55.490Z,28.70
2023-04-21T22:19:35.304Z,28.25
2023-04-21T22:22:12.055Z,29.45
2023-04-21T22:24:43.053Z,28.35
2023-04-21T22:27:14.054Z,26.82
2023-04-21T22:29:44.991Z,28.62
2023-04-21T22:32:16.194Z,29.18
2023-04-21T22:34:47.173Z,30.90
2023-04-21T22:37:18.167Z,28.83
2023-04-21T22:39:49.153Z,32.00
2023-04-21T22:42:20.245Z,30.88
2023-04-21T22:44:51.200Z,29.30
2023-04-21T22:47:22.219Z,27.27
2023-04-21T22:49:54.345Z,30.45
2023-04-21T22:52:26.719Z,25.90
2023-04-21T22:54:57.640Z,31.80
2023-04-21T22:57:29.300Z,27.15
2023-04-21T23:00:00.261Z,26.27
2023-04-21T23:02:31.323Z,28.40
2023-04-21T23:05:02.430Z,27.40
2023-04-21T23:07:33.821Z,27.30
2023-04-21T23:10:05.002Z,34.40
2023-04-21T23:12:36.189Z,33.88
2023-04-21T23:15:07.688Z,28.65
2023-04-21T23:17:38.663Z,33.92
2023-04-21T23:20:11.231Z,29.48
2023-04-21T23:22:42.270Z,29.07
2023-04-21T23:25:13.788Z,31.52
2023-04-21T23:27:45.169Z,30.62
2023-04-21T23:30:16.758Z,29.32
2023-04-21T23:32:47.812Z,29.80
2023-04-21T23:35:18.850Z,29.00
2023-04-21T23:37:50.277Z,30.37
2023-04-21T23:40:21.322Z,30.88
2023-04-21T23:42:52.757Z,33.67
2023-04-21T23:45:23.728Z,28.38
2023-04-21T23:47:54.754Z,27.40
2023-04-21T23:50:25.778Z,32.48
2023-04-21T23:52:57.055Z,37.38
2023-04-21T23:55:28.044Z,34.03
2023-04-21T23:57:59.128Z,34.95
